THY1233 LTFM-EDDB
Flight info
| Callsign | THY1233 |
|---|---|
| Flight time | N/A |
| Altitude | 38000 |
| Route | TUDBU1D/35L TUDBU Q26 ETUBA DCT EVRIK DCT LITKU DCT ROMIS DCT BEFRE T204 NUKRO NUKRO1R |
| Aircraft | B738/M-SDE2E3FGHIRWXY/LB1 |
Departure
| Time | N/A |
|---|---|
| Airport | İstanbul Airport (LTFM) |
Arrival
| Time | 2026-05-05 19:34 |
|---|---|
| Airport | Berlin Brandenburg Airport (EDDB) |
| Time | Latitude | Longitude | Altitude | Speed | Heading |
|---|---|---|---|---|---|
| 2026-05-05 18:04 | 45.80925 | 22.95964 | 37969 ft | 430 kts | 318° |
| 2026-05-05 18:05 | 45.85348 | 22.90191 | 37971 ft | 430 kts | 318° |
| 2026-05-05 18:05 | 45.89766 | 22.84412 | 37981 ft | 430 kts | 318° |
| 2026-05-05 18:06 | 45.94198 | 22.78600 | 37970 ft | 430 kts | 318° |
| 2026-05-05 18:06 | 45.98591 | 22.72827 | 37955 ft | 430 kts | 317° |
| 2026-05-05 18:07 | 46.03006 | 22.67012 | 37973 ft | 430 kts | 317° |
| 2026-05-05 18:07 | 46.07424 | 22.61179 | 37967 ft | 430 kts | 317° |
| 2026-05-05 18:08 | 46.11832 | 22.55347 | 37964 ft | 431 kts | 317° |
| 2026-05-05 18:08 | 46.16220 | 22.49528 | 37965 ft | 431 kts | 317° |
| 2026-05-05 18:09 | 46.20643 | 22.43649 | 37962 ft | 431 kts | 317° |
| 2026-05-05 18:09 | 46.25052 | 22.37775 | 37964 ft | 431 kts | 317° |
| 2026-05-05 18:10 | 46.29470 | 22.31875 | 37965 ft | 432 kts | 317° |
| 2026-05-05 18:10 | 46.33776 | 22.26113 | 37959 ft | 432 kts | 317° |
| 2026-05-05 18:11 | 46.37452 | 22.21189 | 37958 ft | 432 kts | 317° |
| 2026-05-05 18:11 | 46.41864 | 22.15281 | 37947 ft | 432 kts | 317° |
| 2026-05-05 18:12 | 46.46281 | 22.09355 | 37955 ft | 432 kts | 317° |
| 2026-05-05 18:12 | 46.50701 | 22.03409 | 37947 ft | 433 kts | 317° |
| 2026-05-05 18:13 | 46.55116 | 21.97455 | 37933 ft | 433 kts | 317° |
| 2026-05-05 18:13 | 46.59503 | 21.91523 | 37933 ft | 433 kts | 317° |
| 2026-05-05 18:14 | 46.63932 | 21.85521 | 37930 ft | 434 kts | 316° |
| 2026-05-05 18:14 | 46.68353 | 21.79517 | 37929 ft | 434 kts | 316° |
| 2026-05-05 18:15 | 46.72737 | 21.73547 | 37926 ft | 435 kts | 316° |
| 2026-05-05 18:15 | 46.77161 | 21.67510 | 37931 ft | 435 kts | 316° |
| 2026-05-05 18:16 | 46.81578 | 21.61469 | 37922 ft | 436 kts | 316° |
| 2026-05-05 18:16 | 46.86004 | 21.55400 | 37922 ft | 436 kts | 316° |
| 2026-05-05 18:17 | 46.90431 | 21.49315 | 37918 ft | 437 kts | 316° |
| 2026-05-05 18:17 | 46.94853 | 21.43223 | 37918 ft | 437 kts | 316° |
| 2026-05-05 18:18 | 46.99278 | 21.37112 | 37920 ft | 437 kts | 316° |
| 2026-05-05 18:18 | 47.03680 | 21.31018 | 37914 ft | 437 kts | 315° |
| 2026-05-05 18:19 | 47.08106 | 21.24877 | 37918 ft | 438 kts | 315° |
| 2026-05-05 18:19 | 47.12533 | 21.18720 | 37911 ft | 438 kts | 315° |
| 2026-05-05 18:20 | 47.16953 | 21.12557 | 37912 ft | 438 kts | 315° |
| 2026-05-05 18:20 | 47.21344 | 21.06420 | 37911 ft | 438 kts | 315° |
| 2026-05-05 18:21 | 47.25754 | 21.00242 | 37910 ft | 437 kts | 315° |
| 2026-05-05 18:21 | 47.30157 | 20.94058 | 37910 ft | 437 kts | 315° |
| 2026-05-05 18:22 | 47.34560 | 20.87859 | 37909 ft | 437 kts | 315° |
| 2026-05-05 18:22 | 47.38957 | 20.81655 | 37916 ft | 437 kts | 315° |
| 2026-05-05 18:23 | 47.43350 | 20.75439 | 37909 ft | 437 kts | 315° |
| 2026-05-05 18:23 | 47.47744 | 20.69209 | 37910 ft | 437 kts | 315° |
| 2026-05-05 18:24 | 47.52105 | 20.63009 | 37907 ft | 437 kts | 315° |
| 2026-05-05 18:24 | 47.56489 | 20.56761 | 37907 ft | 437 kts | 315° |
| 2026-05-05 18:25 | 47.60868 | 20.50507 | 37909 ft | 437 kts | 315° |
| 2026-05-05 18:25 | 47.65247 | 20.44236 | 37910 ft | 437 kts | 315° |
| 2026-05-05 18:26 | 47.69620 | 20.37957 | 37922 ft | 437 kts | 315° |
| 2026-05-05 18:26 | 47.73962 | 20.31708 | 37911 ft | 438 kts | 315° |
| 2026-05-05 18:27 | 47.78358 | 20.25367 | 37916 ft | 438 kts | 315° |
| 2026-05-05 18:27 | 47.82707 | 20.19078 | 37914 ft | 438 kts | 315° |
| 2026-05-05 18:28 | 47.89249 | 20.09586 | 37919 ft | 438 kts | 314° |
| 2026-05-05 18:28 | 47.93612 | 20.03238 | 37915 ft | 438 kts | 314° |
| 2026-05-05 18:29 | 47.97948 | 19.96912 | 37919 ft | 438 kts | 314° |
| 2026-05-05 18:29 | 48.02302 | 19.90544 | 37924 ft | 438 kts | 314° |
| 2026-05-05 18:30 | 48.06656 | 19.84159 | 37916 ft | 438 kts | 314° |
| 2026-05-05 18:30 | 48.11008 | 19.77763 | 37915 ft | 438 kts | 314° |
| 2026-05-05 18:31 | 48.15355 | 19.71357 | 37919 ft | 438 kts | 314° |
| 2026-05-05 18:31 | 48.19669 | 19.64983 | 37919 ft | 438 kts | 314° |
| 2026-05-05 18:32 | 48.24008 | 19.58539 | 37910 ft | 438 kts | 313° |
| 2026-05-05 18:32 | 48.28172 | 19.51879 | 37916 ft | 438 kts | 311° |
| 2026-05-05 18:33 | 48.32283 | 19.45114 | 37924 ft | 438 kts | 311° |
| 2026-05-05 18:33 | 48.36398 | 19.38365 | 37917 ft | 438 kts | 311° |
| 2026-05-05 18:34 | 48.40529 | 19.31616 | 37914 ft | 438 kts | 311° |
| 2026-05-05 18:34 | 48.44643 | 19.24896 | 37923 ft | 438 kts | 310° |
| 2026-05-05 18:35 | 48.48779 | 19.18121 | 37911 ft | 438 kts | 310° |
| 2026-05-05 18:35 | 48.52899 | 19.11356 | 37904 ft | 437 kts | 310° |
| 2026-05-05 18:36 | 48.57017 | 19.04574 | 37899 ft | 437 kts | 310° |
| 2026-05-05 18:36 | 48.61092 | 18.97846 | 37918 ft | 436 kts | 310° |
| 2026-05-05 18:37 | 48.65187 | 18.91067 | 37898 ft | 436 kts | 310° |
| 2026-05-05 18:37 | 48.69272 | 18.84288 | 37891 ft | 436 kts | 310° |
| 2026-05-05 18:38 | 48.73353 | 18.77499 | 37890 ft | 435 kts | 310° |
| 2026-05-05 18:38 | 48.77430 | 18.70698 | 37881 ft | 435 kts | 310° |
| 2026-05-05 18:39 | 48.81493 | 18.63902 | 37898 ft | 435 kts | 310° |
| 2026-05-05 18:39 | 48.85535 | 18.57123 | 37875 ft | 436 kts | 310° |
| 2026-05-05 18:40 | 48.89615 | 18.50262 | 37855 ft | 437 kts | 309° |
| 2026-05-05 18:40 | 48.93680 | 18.43404 | 37865 ft | 437 kts | 309° |
| 2026-05-05 18:41 | 48.97752 | 18.36525 | 37858 ft | 437 kts | 310° |
| 2026-05-05 18:41 | 49.01817 | 18.29637 | 37878 ft | 438 kts | 309° |
| 2026-05-05 18:42 | 49.05885 | 18.22725 | 37840 ft | 438 kts | 309° |
| 2026-05-05 18:42 | 49.09944 | 18.15810 | 37844 ft | 437 kts | 309° |
| 2026-05-05 18:43 | 49.13976 | 18.08902 | 37837 ft | 437 kts | 309° |
| 2026-05-05 18:43 | 49.17955 | 18.01873 | 37830 ft | 437 kts | 308° |
| 2026-05-05 18:44 | 49.21915 | 17.94809 | 37827 ft | 438 kts | 308° |
| 2026-05-05 18:44 | 49.25889 | 17.87713 | 37833 ft | 438 kts | 308° |
| 2026-05-05 18:45 | 49.29854 | 17.80631 | 37823 ft | 438 kts | 308° |
| 2026-05-05 18:45 | 49.33819 | 17.73536 | 37817 ft | 438 kts | 308° |
| 2026-05-05 18:46 | 49.37755 | 17.66475 | 37816 ft | 438 kts | 308° |
| 2026-05-05 18:46 | 49.41532 | 17.59681 | 37813 ft | 438 kts | 308° |
| 2026-05-05 18:47 | 49.45485 | 17.52552 | 37813 ft | 438 kts | 308° |
| 2026-05-05 18:47 | 49.49433 | 17.45411 | 37808 ft | 438 kts | 308° |
| 2026-05-05 18:48 | 49.53352 | 17.38303 | 37809 ft | 438 kts | 308° |
| 2026-05-05 18:48 | 49.57287 | 17.31147 | 37822 ft | 438 kts | 307° |
| 2026-05-05 18:49 | 49.61224 | 17.23968 | 37808 ft | 438 kts | 307° |
| 2026-05-05 18:49 | 49.65154 | 17.16782 | 37803 ft | 438 kts | 307° |
| 2026-05-05 18:50 | 49.69079 | 17.09585 | 37800 ft | 438 kts | 307° |
| 2026-05-05 18:50 | 49.72998 | 17.02379 | 37800 ft | 438 kts | 307° |
| 2026-05-05 18:51 | 49.76918 | 16.95151 | 37818 ft | 438 kts | 307° |
| 2026-05-05 18:51 | 49.80811 | 16.87955 | 37798 ft | 438 kts | 307° |
| 2026-05-05 18:52 | 49.84720 | 16.80707 | 37794 ft | 439 kts | 307° |
| 2026-05-05 18:52 | 49.88630 | 16.73438 | 37791 ft | 438 kts | 307° |
| 2026-05-05 18:53 | 49.92534 | 16.66161 | 37789 ft | 439 kts | 307° |
| 2026-05-05 18:53 | 49.96434 | 16.58869 | 37790 ft | 439 kts | 306° |
| 2026-05-05 18:54 | 50.00335 | 16.51556 | 37781 ft | 439 kts | 306° |
| 2026-05-05 18:54 | 50.04205 | 16.44282 | 37767 ft | 439 kts | 306° |
| 2026-05-05 18:55 | 50.08087 | 16.36964 | 37780 ft | 438 kts | 306° |
| 2026-05-05 18:55 | 50.11959 | 16.29644 | 37776 ft | 438 kts | 306° |
| 2026-05-05 18:56 | 50.15831 | 16.22303 | 37791 ft | 437 kts | 306° |
| 2026-05-05 18:56 | 50.19699 | 16.14950 | 37774 ft | 437 kts | 306° |
| 2026-05-05 18:57 | 50.23522 | 16.07662 | 37774 ft | 435 kts | 306° |
| 2026-05-05 18:57 | 50.27348 | 16.00347 | 37744 ft | 434 kts | 306° |
| 2026-05-05 18:58 | 50.31163 | 15.93033 | 37757 ft | 433 kts | 306° |
| 2026-05-05 18:58 | 50.34957 | 15.85740 | 37778 ft | 431 kts | 305° |
| 2026-05-05 18:59 | 50.38103 | 15.79675 | 37769 ft | 431 kts | 305° |
| 2026-05-05 18:59 | 50.41883 | 15.72369 | 37764 ft | 431 kts | 305° |
| 2026-05-05 19:00 | 50.45663 | 15.65042 | 37766 ft | 432 kts | 305° |
| 2026-05-05 19:00 | 50.49421 | 15.57740 | 37787 ft | 432 kts | 305° |
| 2026-05-05 19:01 | 50.53203 | 15.50367 | 37781 ft | 433 kts | 305° |
| 2026-05-05 19:01 | 50.56997 | 15.42953 | 37782 ft | 434 kts | 305° |
| 2026-05-05 19:02 | 50.60764 | 15.35569 | 37775 ft | 435 kts | 304° |
| 2026-05-05 19:02 | 50.64561 | 15.28105 | 37773 ft | 436 kts | 304° |
| 2026-05-05 19:03 | 50.68348 | 15.20645 | 37750 ft | 428 kts | 304° |
| 2026-05-05 19:03 | 50.70173 | 15.17049 | 37751 ft | 413 kts | 304° |
| 2026-05-05 19:03 | 50.71937 | 15.13568 | 37745 ft | 399 kts | 304° |
| 2026-05-05 19:04 | 50.73643 | 15.10196 | 37772 ft | 385 kts | 303° |
| 2026-05-05 19:04 | 50.75297 | 15.06915 | 37773 ft | 380 kts | 303° |
| 2026-05-05 19:04 | 50.78614 | 15.00300 | 37800 ft | 389 kts | 303° |
| 2026-05-05 19:05 | 50.82021 | 14.93500 | 37801 ft | 399 kts | 304° |
| 2026-05-05 19:05 | 50.85473 | 14.86607 | 37792 ft | 404 kts | 304° |
| 2026-05-05 19:06 | 50.88975 | 14.79600 | 37784 ft | 403 kts | 303° |
| 2026-05-05 19:06 | 50.92508 | 14.72823 | 37772 ft | 399 kts | 313° |
| 2026-05-05 19:07 | 50.94743 | 14.70194 | 37638 ft | 400 kts | 326° |
| 2026-05-05 19:07 | 50.97287 | 14.68342 | 37662 ft | 407 kts | 339° |
| 2026-05-05 19:07 | 51.02798 | 14.66119 | 37688 ft | 408 kts | 342° |
| 2026-05-05 19:08 | 51.08312 | 14.64029 | 37201 ft | 418 kts | 341° |
| 2026-05-05 19:08 | 51.11161 | 14.62904 | 36459 ft | 423 kts | 341° |
| 2026-05-05 19:08 | 51.14024 | 14.61757 | 35525 ft | 426 kts | 341° |
| 2026-05-05 19:09 | 51.16917 | 14.60587 | 34495 ft | 431 kts | 341° |
| 2026-05-05 19:09 | 51.19863 | 14.59392 | 33238 ft | 441 kts | 342° |
| 2026-05-05 19:09 | 51.22868 | 14.58172 | 32043 ft | 446 kts | 342° |
| 2026-05-05 19:09 | 51.25878 | 14.56954 | 31159 ft | 443 kts | 342° |
| 2026-05-05 19:10 | 51.28858 | 14.55752 | 30462 ft | 437 kts | 342° |
| 2026-05-05 19:10 | 51.31779 | 14.54571 | 29750 ft | 431 kts | 342° |
| 2026-05-05 19:10 | 51.34642 | 14.53410 | 28910 ft | 426 kts | 342° |
| 2026-05-05 19:10 | 51.37509 | 14.52253 | 28089 ft | 422 kts | 343° |
| 2026-05-05 19:11 | 51.40396 | 14.51445 | 27304 ft | 420 kts | 350° |
| 2026-05-05 19:11 | 51.43299 | 14.50975 | 26555 ft | 417 kts | 352° |
| 2026-05-05 19:11 | 51.46177 | 14.50593 | 25744 ft | 415 kts | 352° |
| 2026-05-05 19:11 | 51.49050 | 14.50224 | 24988 ft | 412 kts | 352° |
| 2026-05-05 19:12 | 51.51890 | 14.49843 | 24290 ft | 408 kts | 352° |
| 2026-05-05 19:12 | 51.54707 | 14.49445 | 23614 ft | 404 kts | 352° |
| 2026-05-05 19:12 | 51.57496 | 14.49034 | 22865 ft | 400 kts | 352° |
| 2026-05-05 19:12 | 51.60251 | 14.48618 | 22133 ft | 395 kts | 352° |
| 2026-05-05 19:13 | 51.62971 | 14.48202 | 21458 ft | 390 kts | 351° |
| 2026-05-05 19:13 | 51.65670 | 14.47786 | 20788 ft | 385 kts | 352° |
| 2026-05-05 19:13 | 51.68284 | 14.47382 | 20114 ft | 381 kts | 352° |
| 2026-05-05 19:13 | 51.70907 | 14.46977 | 19465 ft | 377 kts | 352° |
| 2026-05-05 19:14 | 51.73508 | 14.46574 | 18828 ft | 373 kts | 352° |
| 2026-05-05 19:14 | 51.76081 | 14.46176 | 18200 ft | 369 kts | 352° |
| 2026-05-05 19:14 | 51.78623 | 14.45781 | 17509 ft | 365 kts | 352° |
| 2026-05-05 19:14 | 51.81145 | 14.45391 | 16833 ft | 361 kts | 352° |
| 2026-05-05 19:15 | 51.83631 | 14.45005 | 16172 ft | 357 kts | 352° |
| 2026-05-05 19:15 | 51.86079 | 14.44625 | 15654 ft | 350 kts | 352° |
| 2026-05-05 19:15 | 51.88504 | 14.44247 | 14955 ft | 349 kts | 352° |
| 2026-05-05 19:15 | 51.90921 | 14.43870 | 14315 ft | 347 kts | 352° |
| 2026-05-05 19:16 | 51.93285 | 14.43501 | 13723 ft | 344 kts | 352° |
| 2026-05-05 19:16 | 51.95679 | 14.43128 | 13198 ft | 336 kts | 352° |
| 2026-05-05 19:16 | 51.97946 | 14.42775 | 12789 ft | 327 kts | 352° |
| 2026-05-05 19:16 | 52.00178 | 14.42428 | 12403 ft | 317 kts | 352° |
| 2026-05-05 19:17 | 52.02284 | 14.41628 | 12029 ft | 307 kts | 330° |
| 2026-05-05 19:17 | 52.03913 | 14.39547 | 11785 ft | 293 kts | 306° |
| 2026-05-05 19:17 | 52.04959 | 14.36716 | 11694 ft | 300 kts | 289° |
| 2026-05-05 19:17 | 52.05430 | 14.33352 | 11571 ft | 311 kts | 275° |
| 2026-05-05 19:18 | 52.05682 | 14.29813 | 11384 ft | 316 kts | 274° |
| 2026-05-05 19:18 | 52.05897 | 14.26273 | 11232 ft | 313 kts | 274° |
| 2026-05-05 19:18 | 52.06102 | 14.22798 | 11103 ft | 316 kts | 274° |
| 2026-05-05 19:18 | 52.06317 | 14.19226 | 10955 ft | 317 kts | 274° |
| 2026-05-05 19:19 | 52.06536 | 14.15698 | 10920 ft | 310 kts | 274° |
| 2026-05-05 19:19 | 52.06755 | 14.12204 | 10817 ft | 312 kts | 274° |
| 2026-05-05 19:19 | 52.06978 | 14.08692 | 10683 ft | 312 kts | 274° |
| 2026-05-05 19:19 | 52.07201 | 14.05180 | 10556 ft | 312 kts | 274° |
| 2026-05-05 19:20 | 52.07424 | 14.01669 | 10417 ft | 310 kts | 274° |
| 2026-05-05 19:20 | 52.07644 | 13.98222 | 10267 ft | 301 kts | 274° |
| 2026-05-05 19:20 | 52.07855 | 13.94896 | 10131 ft | 292 kts | 274° |
| 2026-05-05 19:20 | 52.08060 | 13.91663 | 10001 ft | 283 kts | 274° |
| 2026-05-05 19:21 | 52.08257 | 13.88524 | 9877 ft | 274 kts | 274° |
| 2026-05-05 19:21 | 52.08446 | 13.85511 | 9766 ft | 268 kts | 274° |
| 2026-05-05 19:21 | 52.08633 | 13.82502 | 9651 ft | 267 kts | 274° |
| 2026-05-05 19:21 | 52.08815 | 13.79512 | 9525 ft | 267 kts | 274° |
| 2026-05-05 19:22 | 52.08997 | 13.76499 | 9414 ft | 268 kts | 274° |
| 2026-05-05 19:22 | 52.09181 | 13.73448 | 9293 ft | 273 kts | 274° |
| 2026-05-05 19:22 | 52.09363 | 13.70372 | 9165 ft | 273 kts | 274° |
| 2026-05-05 19:22 | 52.09547 | 13.67298 | 9033 ft | 272 kts | 274° |
| 2026-05-05 19:23 | 52.09726 | 13.64270 | 8910 ft | 272 kts | 274° |
| 2026-05-05 19:23 | 52.09901 | 13.61209 | 8616 ft | 273 kts | 274° |
| 2026-05-05 19:23 | 52.10075 | 13.58117 | 8229 ft | 272 kts | 274° |
| 2026-05-05 19:23 | 52.10252 | 13.55084 | 7807 ft | 268 kts | 274° |
| 2026-05-05 19:24 | 52.10427 | 13.52065 | 7384 ft | 265 kts | 274° |
| 2026-05-05 19:24 | 52.10598 | 13.49131 | 6962 ft | 262 kts | 274° |
| 2026-05-05 19:24 | 52.10777 | 13.46149 | 6540 ft | 260 kts | 274° |
| 2026-05-05 19:24 | 52.10946 | 13.43274 | 6128 ft | 258 kts | 274° |
| 2026-05-05 19:25 | 52.11108 | 13.40373 | 5694 ft | 256 kts | 274° |
| 2026-05-05 19:25 | 52.11254 | 13.37484 | 5268 ft | 255 kts | 274° |
| 2026-05-05 19:25 | 52.11389 | 13.34602 | 4840 ft | 255 kts | 274° |
| 2026-05-05 19:25 | 52.11514 | 13.31763 | 4416 ft | 254 kts | 274° |
| 2026-05-05 19:26 | 52.11634 | 13.28892 | 4050 ft | 251 kts | 274° |
| 2026-05-05 19:26 | 52.11744 | 13.26136 | 3990 ft | 239 kts | 274° |
| 2026-05-05 19:26 | 52.12037 | 13.23541 | 3966 ft | 232 kts | 298° |
| 2026-05-05 19:26 | 52.13078 | 13.21558 | 4002 ft | 235 kts | 328° |
| 2026-05-05 19:27 | 52.14513 | 13.20238 | 4011 ft | 239 kts | 334° |
| 2026-05-05 19:27 | 52.16002 | 13.19000 | 4001 ft | 239 kts | 335° |
| 2026-05-05 19:27 | 52.17465 | 13.17788 | 3986 ft | 239 kts | 334° |
| 2026-05-05 19:27 | 52.18950 | 13.16560 | 3989 ft | 238 kts | 334° |
| 2026-05-05 19:28 | 52.20424 | 13.15334 | 3918 ft | 240 kts | 335° |
| 2026-05-05 19:28 | 52.21920 | 13.14082 | 3739 ft | 241 kts | 334° |
| 2026-05-05 19:28 | 52.23420 | 13.12904 | 3564 ft | 235 kts | 344° |
| 2026-05-05 19:28 | 52.24981 | 13.12827 | 3453 ft | 218 kts | 23° |
| 2026-05-05 19:29 | 52.26072 | 13.14283 | 3489 ft | 198 kts | 57° |
| 2026-05-05 19:29 | 52.26791 | 13.16063 | 3587 ft | 181 kts | 56° |
| 2026-05-05 19:29 | 52.27599 | 13.17801 | 3552 ft | 206 kts | 58° |
| 2026-05-05 19:29 | 52.28223 | 13.19898 | 3505 ft | 202 kts | 68° |
| 2026-05-05 19:30 | 52.28714 | 13.21999 | 3337 ft | 197 kts | 69° |
| 2026-05-05 19:30 | 52.29189 | 13.24064 | 3088 ft | 191 kts | 70° |
| 2026-05-05 19:30 | 52.29655 | 13.26066 | 2826 ft | 186 kts | 69° |
| 2026-05-05 19:30 | 52.30111 | 13.28011 | 2600 ft | 182 kts | 69° |
| 2026-05-05 19:31 | 52.30556 | 13.29934 | 2346 ft | 178 kts | 70° |
| 2026-05-05 19:31 | 52.30979 | 13.31795 | 2065 ft | 175 kts | 69° |
| 2026-05-05 19:31 | 52.31394 | 13.33624 | 1835 ft | 165 kts | 70° |
| 2026-05-05 19:31 | 52.31793 | 13.35293 | 1670 ft | 148 kts | 68° |
| 2026-05-05 19:32 | 52.32139 | 13.36770 | 1538 ft | 136 kts | 69° |
| 2026-05-05 19:32 | 52.32473 | 13.38183 | 1313 ft | 131 kts | 67° |
| 2026-05-05 19:32 | 52.32818 | 13.39581 | 1124 ft | 136 kts | 66° |
| 2026-05-05 19:32 | 52.33160 | 13.41047 | 966 ft | 139 kts | 68° |
| 2026-05-05 19:33 | 52.33519 | 13.42496 | 798 ft | 136 kts | 66° |
| 2026-05-05 19:33 | 52.33854 | 13.43962 | 581 ft | 137 kts | 66° |
| 2026-05-05 19:33 | 52.34200 | 13.45386 | 401 ft | 134 kts | 68° |
| 2026-05-05 19:33 | 52.34526 | 13.46780 | 216 ft | 133 kts | 69° |
| 2026-05-05 19:34 | 52.34854 | 13.48148 | 154 ft | 117 kts | 69° |
| 2026-05-05 19:34 | 52.35063 | 13.49022 | 153 ft | 31 kts | 67° |
| 2026-05-05 19:34 | 52.35186 | 13.49303 | 155 ft | 16 kts | 39° |
| 2026-05-05 19:35 | 52.35359 | 13.49528 | 157 ft | 15 kts | 39° |
| 2026-05-05 19:35 | 52.35437 | 13.49639 | 157 ft | 15 kts | 51° |
| 2026-05-05 19:35 | 52.35480 | 13.49786 | 157 ft | 14 kts | 67° |
| 2026-05-05 19:35 | 52.35517 | 13.49927 | 157 ft | 13 kts | 66° |
| 2026-05-05 19:36 | 52.35549 | 13.50056 | 157 ft | 11 kts | 70° |
| 2026-05-05 19:36 | 52.35575 | 13.50172 | 157 ft | 11 kts | 71° |
| 2026-05-05 19:36 | 52.35601 | 13.50294 | 157 ft | 13 kts | 71° |
| 2026-05-05 19:36 | 52.35636 | 13.50448 | 157 ft | 16 kts | 69° |
| 2026-05-05 19:37 | 52.35681 | 13.50641 | 157 ft | 20 kts | 67° |
| 2026-05-05 19:37 | 52.35737 | 13.50824 | 157 ft | 11 kts | 29° |
| 2026-05-05 19:37 | 52.35814 | 13.50800 | 157 ft | 12 kts | 340° |
| 2026-05-05 19:37 | 52.35893 | 13.50751 | 157 ft | 13 kts | 339° |
| 2026-05-05 19:38 | 52.35987 | 13.50692 | 158 ft | 17 kts | 340° |
| 2026-05-05 19:38 | 52.36107 | 13.50619 | 158 ft | 20 kts | 339° |
| 2026-05-05 19:38 | 52.36225 | 13.50560 | 158 ft | 16 kts | 9° |
| 2026-05-05 19:38 | 52.36282 | 13.50653 | 158 ft | 0 kts | 71° |